createdAt,value
2023-09-16T00:01:14.946Z,100965.31
2023-09-16T00:03:43.108Z,100973.19
2023-09-16T00:06:13.912Z,100976.47
2023-09-16T00:08:45.594Z,100974.00
2023-09-16T00:11:15.076Z,100970.13
2023-09-16T00:13:44.788Z,100958.97
2023-09-16T00:16:13.455Z,100967.66
2023-09-16T00:18:41.610Z,100985.94
2023-09-16T00:21:11.602Z,100985.81
2023-09-16T00:23:39.970Z,100990.69
2023-09-16T00:26:07.934Z,100994.53
2023-09-16T00:28:38.040Z,101009.31
2023-09-16T00:31:07.410Z,101013.75
2023-09-16T00:33:35.664Z,101013.59
2023-09-16T00:36:03.840Z,101017.34
2023-09-16T00:38:31.856Z,101019.09
2023-09-16T00:40:59.885Z,101014.81
2023-09-16T00:43:28.075Z,101021.59
2023-09-16T00:45:57.562Z,101017.72
2023-09-16T00:48:25.686Z,101017.25
2023-09-16T00:50:53.811Z,101009.38
2023-09-16T00:53:22.457Z,101016.44
2023-09-16T00:55:51.742Z,101017.72
2023-09-16T00:58:20.038Z,100995.91
2023-09-16T01:00:49.045Z,101013.50
2023-09-16T01:03:19.929Z,101008.94
2023-09-16T01:05:49.746Z,101010.03
2023-09-16T01:08:19.282Z,101013.38
2023-09-16T01:10:47.485Z,101012.53
2023-09-16T01:13:15.584Z,101010.91
2023-09-16T01:15:50.912Z,101021.31
2023-09-16T01:18:24.555Z,101021.47
2023-09-16T01:20:52.648Z,101021.59
2023-09-16T01:23:20.729Z,101026.06
2023-09-16T01:25:50.066Z,101020.38
2023-09-16T01:28:18.362Z,101018.88
2023-09-16T01:30:49.901Z,101027.84
2023-09-16T01:33:24.062Z,101026.03
2023-09-16T01:35:57.293Z,101027.72
2023-09-16T01:38:26.698Z,101035.91
2023-09-16T01:40:57.303Z,101040.06
2023-09-16T01:43:26.294Z,101033.16
2023-09-16T01:45:54.711Z,101042.88
2023-09-16T01:48:29.811Z,101046.19
2023-09-16T01:51:04.960Z,101041.06
2023-09-16T01:53:32.952Z,101048.13
2023-09-16T01:56:02.315Z,101050.91
2023-09-16T01:58:30.334Z,101054.00
2023-09-16T02:00:58.329Z,101058.75
2023-09-16T02:03:26.300Z,101056.66
2023-09-16T02:05:54.256Z,101063.16
2023-09-16T02:08:22.266Z,101051.34
2023-09-16T02:10:50.223Z,101055.06
2023-09-16T02:13:19.682Z,101056.88
2023-09-16T02:15:47.757Z,101058.81
2023-09-16T02:18:15.871Z,101062.47
2023-09-16T02:20:44.905Z,101061.72
2023-09-16T02:23:13.679Z,101065.06
2023-09-16T02:25:41.658Z,101067.72
2023-09-16T02:28:09.688Z,101060.03
2023-09-16T02:30:39.118Z,101067.69
2023-09-16T02:33:07.131Z,101065.72
2023-09-16T02:35:35.071Z,101067.38
2023-09-16T02:38:03.714Z,101060.88
2023-09-16T02:40:31.721Z,101076.00
2023-09-16T02:42:59.718Z,101087.66
2023-09-16T02:45:27.690Z,101093.50
2023-09-16T02:47:57.118Z,101085.88
2023-09-16T02:50:25.131Z,101089.47
2023-09-16T02:52:53.123Z,101094.16
2023-09-16T02:55:23.350Z,101088.75
2023-09-16T02:57:51.319Z,101085.84
2023-09-16T03:00:19.322Z,101083.34
2023-09-16T03:02:49.990Z,101081.38
2023-09-16T03:05:19.766Z,101084.31
2023-09-16T03:07:47.955Z,101076.13
2023-09-16T03:10:15.946Z,101076.66
2023-09-16T03:12:44.054Z,101070.84
2023-09-16T03:15:12.493Z,101076.28
2023-09-16T03:17:47.970Z,101021.81
2023-09-16T03:20:24.005Z,101064.28
2023-09-16T03:22:51.965Z,101068.69
2023-09-16T03:25:19.943Z,101068.16
2023-09-16T03:27:47.946Z,101063.88
2023-09-16T03:30:19.111Z,101063.19
2023-09-16T03:32:47.175Z,101063.47
2023-09-16T03:35:15.213Z,101059.72
2023-09-16T03:37:44.564Z,101060.16
2023-09-16T03:40:12.753Z,101050.13
2023-09-16T03:42:40.744Z,101070.25
2023-09-16T03:45:18.944Z,101065.00
2023-09-16T03:47:55.389Z,101063.88
2023-09-16T03:50:23.570Z,101060.56
2023-09-16T03:52:53.079Z,101062.94
2023-09-16T03:55:21.211Z,101056.97
2023-09-16T03:57:49.209Z,101067.09
2023-09-16T04:00:17.372Z,101066.41
2023-09-16T04:02:45.645Z,101067.91
2023-09-16T04:05:14.836Z,101075.66
2023-09-16T04:07:42.869Z,101074.44
2023-09-16T04:10:12.604Z,101075.13
2023-09-16T04:12:40.696Z,101073.19
2023-09-16T04:15:09.141Z,101080.69
2023-09-16T04:17:37.166Z,101073.06
2023-09-16T04:20:07.478Z,101075.00
2023-09-16T04:22:35.511Z,101076.81
2023-09-16T04:25:03.763Z,101082.06
2023-09-16T04:27:33.355Z,101075.97
2023-09-16T04:30:01.309Z,101079.59
2023-09-16T04:32:29.269Z,101088.03
2023-09-16T04:34:59.909Z,101097.00
2023-09-16T04:37:28.095Z,101102.72
2023-09-16T04:39:56.272Z,101099.56
2023-09-16T04:42:30.661Z,101112.44
2023-09-16T04:45:00.620Z,101115.38
2023-09-16T04:47:29.378Z,101130.66
2023-09-16T04:49:57.464Z,101126.47
2023-09-16T04:52:26.555Z,101121.75
2023-09-16T04:54:55.023Z,101132.31
2023-09-16T04:57:23.280Z,101115.94
2023-09-16T04:59:51.452Z,101121.78
2023-09-16T05:02:20.952Z,101125.63
2023-09-16T05:04:49.332Z,101121.78
2023-09-16T05:07:17.328Z,101113.03
2023-09-16T05:09:45.316Z,101123.97
2023-09-16T05:12:13.822Z,101128.13
2023-09-16T05:14:41.792Z,101122.16
2023-09-16T05:17:09.815Z,101133.41
2023-09-16T05:19:39.163Z,101133.56
2023-09-16T05:22:07.388Z,101119.25
2023-09-16T05:24:35.726Z,101118.31
2023-09-16T05:27:03.761Z,101134.53
2023-09-16T05:29:31.846Z,101132.16
2023-09-16T05:32:01.047Z,101136.88
2023-09-16T05:34:30.167Z,101136.97
2023-09-16T05:36:59.548Z,101138.91
2023-09-16T05:39:27.526Z,101141.03
2023-09-16T05:41:55.508Z,101147.28
2023-09-16T05:44:23.483Z,101146.47
2023-09-16T05:46:51.588Z,101141.69
2023-09-16T05:49:20.191Z,101157.41
2023-09-16T05:51:48.493Z,101152.16
2023-09-16T05:54:19.393Z,101156.44
2023-09-16T05:56:47.912Z,101158.41
2023-09-16T05:59:16.972Z,101152.56
2023-09-16T06:01:44.988Z,101159.91
2023-09-16T06:04:13.074Z,101164.50
2023-09-16T06:06:41.141Z,101171.56
2023-09-16T06:09:09.112Z,101167.13
2023-09-16T06:11:38.466Z,101172.44
2023-09-16T06:14:07.541Z,101176.56
2023-09-16T06:16:35.783Z,101178.94
2023-09-16T06:19:03.923Z,101181.19
2023-09-16T06:21:32.169Z,101157.16
2023-09-16T06:24:00.728Z,101171.03
2023-09-16T06:26:29.250Z,101167.00
2023-09-16T06:28:58.728Z,101179.22
2023-09-16T06:31:26.747Z,101187.28
2023-09-16T06:33:56.566Z,101181.84
2023-09-16T06:36:25.017Z,101186.69
2023-09-16T06:38:52.984Z,101197.69
2023-09-16T06:41:20.948Z,101204.09
2023-09-16T06:43:48.941Z,101213.34
2023-09-16T06:46:19.188Z,101204.91
2023-09-16T06:48:47.863Z,101215.03
2023-09-16T06:51:16.110Z,101216.00
2023-09-16T06:53:44.122Z,101219.59
2023-09-16T06:56:12.092Z,101225.88
2023-09-16T07:01:27.033Z,101226.41
2023-09-16T07:03:55.348Z,101238.38
2023-09-16T07:06:23.798Z,101235.59
2023-09-16T07:08:52.074Z,101234.22
2023-09-16T07:11:20.096Z,101226.56
2023-09-16T07:13:48.233Z,101238.78
2023-09-16T07:16:16.392Z,101236.81
2023-09-16T07:18:45.987Z,101238.91
2023-09-16T07:21:14.125Z,101242.13
2023-09-16T07:23:42.156Z,101237.41
2023-09-16T07:26:10.181Z,101244.59
2023-09-16T07:28:38.243Z,101248.94
2023-09-16T07:31:06.314Z,101176.56
2023-09-16T07:33:34.372Z,101249.22
2023-09-16T07:36:03.842Z,101250.88
2023-09-16T07:38:31.873Z,101247.69
2023-09-16T07:40:59.898Z,101253.50
2023-09-16T07:43:27.953Z,101245.84
2023-09-16T07:45:57.855Z,101250.53
2023-09-16T07:48:25.964Z,101252.56
2023-09-16T07:50:55.715Z,101256.75
2023-09-16T07:53:25.221Z,101253.22
2023-09-16T07:55:53.276Z,101257.97
2023-09-16T07:58:21.349Z,101256.00
2023-09-16T08:00:50.825Z,101260.25
2023-09-16T08:03:19.121Z,101257.19
2023-09-16T08:05:47.346Z,101244.56
2023-09-16T08:08:15.419Z,101250.91
2023-09-16T08:10:51.260Z,101252.75
2023-09-16T08:13:19.888Z,101246.69
2023-09-16T08:15:48.144Z,101246.16
2023-09-16T08:18:16.537Z,101240.44
2023-09-16T08:20:44.707Z,101236.66
2023-09-16T08:23:13.368Z,101239.34
2023-09-16T08:25:41.439Z,101232.03
2023-09-16T08:28:10.932Z,101229.47
2023-09-16T08:30:39.004Z,101240.84
2023-09-16T08:33:07.304Z,101248.66
2023-09-16T08:35:35.368Z,101242.00
2023-09-16T08:38:03.785Z,101251.41
2023-09-16T08:40:33.667Z,101240.19
2023-09-16T08:43:13.122Z,101248.56
2023-09-16T08:45:46.330Z,101251.13
2023-09-16T08:48:21.800Z,101254.56
2023-09-16T08:50:54.476Z,101247.31
2023-09-16T08:53:26.786Z,101255.84
2023-09-16T08:55:56.636Z,101251.47
2023-09-16T08:58:26.852Z,101247.91
2023-09-16T09:00:55.123Z,101242.16
2023-09-16T09:03:23.803Z,101248.13
2023-09-16T09:05:54.182Z,101242.81
2023-09-16T09:08:22.270Z,101252.88
2023-09-16T09:10:51.248Z,101259.16
2023-09-16T09:13:21.413Z,101256.88
2023-09-16T09:15:51.954Z,101253.47
2023-09-16T09:18:20.500Z,101251.97
2023-09-16T09:20:48.877Z,101250.97
2023-09-16T09:23:17.041Z,101249.91
2023-09-16T09:25:45.149Z,101256.19
2023-09-16T09:28:16.059Z,101239.69
2023-09-16T09:30:44.430Z,101237.31
2023-09-16T09:33:16.355Z,101247.00
2023-09-16T09:35:44.579Z,101245.63
2023-09-16T09:38:12.696Z,101247.28
2023-09-16T09:40:40.773Z,101247.41
2023-09-16T09:43:08.858Z,101245.38
2023-09-16T09:45:39.444Z,101241.47
2023-09-16T09:48:08.313Z,101246.25
2023-09-16T09:50:38.340Z,101241.59
2023-09-16T09:53:06.928Z,101247.44
2023-09-16T09:55:35.001Z,101241.13
2023-09-16T09:58:03.249Z,101240.75
2023-09-16T10:00:31.496Z,101249.00
2023-09-16T10:03:02.323Z,101246.59
2023-09-16T10:05:36.437Z,101249.06
2023-09-16T10:08:07.453Z,101241.94
2023-09-16T10:10:38.001Z,101241.66
2023-09-16T10:13:06.823Z,101239.19
2023-09-16T10:15:38.525Z,101218.13
2023-09-16T10:18:08.126Z,101241.81
2023-09-16T10:20:39.551Z,101230.09
2023-09-16T10:23:09.277Z,101241.09
2023-09-16T10:25:40.542Z,101220.44
2023-09-16T10:28:10.339Z,101227.41
2023-09-16T10:30:39.489Z,101206.72
2023-09-16T10:33:09.442Z,101213.28
2023-09-16T10:35:40.167Z,101212.94
2023-09-16T10:38:12.640Z,101211.09
2023-09-16T10:40:41.826Z,101214.94
2023-09-16T10:43:09.898Z,101207.69
2023-09-16T10:45:39.870Z,101206.53
2023-09-16T10:48:08.595Z,101211.25
2023-09-16T10:50:39.076Z,101208.28
2023-09-16T10:53:11.928Z,101202.19
2023-09-16T10:55:47.399Z,101193.56
2023-09-16T10:58:22.241Z,101192.47
2023-09-16T11:00:55.102Z,101195.13
2023-09-16T11:03:29.875Z,101181.47
2023-09-16T11:05:59.010Z,101175.19
2023-09-16T11:08:28.848Z,101181.09
2023-09-16T11:10:57.838Z,101186.00
2023-09-16T11:13:27.435Z,101192.81
2023-09-16T11:16:00.126Z,101167.03
2023-09-16T11:18:28.949Z,101178.66
2023-09-16T11:20:57.357Z,101169.81
2023-09-16T11:23:26.822Z,101175.84
2023-09-16T11:25:58.870Z,101170.94
2023-09-16T11:28:27.340Z,101177.41
2023-09-16T11:30:56.884Z,101164.06
2023-09-16T11:33:29.946Z,101166.22
2023-09-16T11:36:17.760Z,101168.00
2023-09-16T11:38:57.021Z,101163.53
2023-09-16T11:41:27.048Z,101156.81
2023-09-16T11:43:55.654Z,101158.84
2023-09-16T11:46:23.984Z,101151.94
2023-09-16T11:48:54.862Z,101152.72
2023-09-16T11:51:25.043Z,101144.81
2023-09-16T11:53:54.445Z,101138.66
2023-09-16T11:56:25.774Z,101125.47
2023-09-16T11:58:56.743Z,101117.06
2023-09-16T12:01:26.514Z,101138.28
2023-09-16T12:03:56.917Z,101143.69
2023-09-16T12:06:27.423Z,101145.34
2023-09-16T12:08:57.191Z,101142.59
2023-09-16T12:11:26.505Z,101143.47
2023-09-16T12:13:56.409Z,101122.03
2023-09-16T12:16:24.924Z,101127.47
2023-09-16T12:18:53.713Z,101114.81
2023-09-16T12:21:22.828Z,101128.75
2023-09-16T12:23:53.318Z,101133.81
2023-09-16T12:26:21.813Z,101135.25
2023-09-16T12:28:50.154Z,101135.69
2023-09-16T12:31:24.905Z,101123.00
2023-09-16T12:33:58.199Z,101130.38
2023-09-16T12:36:27.438Z,101128.72
2023-09-16T12:38:56.620Z,101137.28
2023-09-16T12:41:26.711Z,101134.19
2023-09-16T12:43:56.763Z,101139.00
2023-09-16T12:46:29.362Z,101138.28
2023-09-16T12:48:58.314Z,101129.41
2023-09-16T12:51:29.009Z,101129.50
2023-09-16T12:53:57.264Z,101129.94
2023-09-16T12:56:25.822Z,101120.28
2023-09-16T12:58:55.385Z,101125.69
2023-09-16T13:01:25.640Z,101122.16
2023-09-16T13:03:54.482Z,101120.28
2023-09-16T13:06:24.455Z,101134.75
2023-09-16T13:08:53.644Z,101124.47
2023-09-16T13:11:22.017Z,101126.59
2023-09-16T13:13:54.135Z,101121.94
2023-09-16T13:16:27.891Z,101115.81
2023-09-16T13:18:56.589Z,101129.44
2023-09-16T13:21:32.134Z,101115.00
2023-09-16T13:24:01.914Z,101123.00
2023-09-16T13:26:30.769Z,101119.28
2023-09-16T13:29:02.756Z,101129.09
2023-09-16T13:31:34.375Z,101130.41
2023-09-16T13:34:05.161Z,101127.13
2023-09-16T13:36:35.154Z,101126.28
2023-09-16T13:39:05.519Z,101118.97
2023-09-16T13:41:33.912Z,101128.31
2023-09-16T13:44:01.957Z,101126.47
2023-09-16T13:46:32.696Z,101129.13
2023-09-16T13:49:01.077Z,101121.78
2023-09-16T13:51:29.341Z,101131.34
2023-09-16T13:53:57.974Z,101131.34
2023-09-16T13:56:27.438Z,101125.88
2023-09-16T13:58:55.637Z,101120.56
2023-09-16T14:01:23.899Z,101124.88
2023-09-16T14:03:53.822Z,101123.19
2023-09-16T14:06:22.241Z,101117.13
2023-09-16T14:08:51.830Z,101121.16
2023-09-16T14:11:20.954Z,101129.91
2023-09-16T14:13:49.187Z,101127.97
2023-09-16T14:16:17.737Z,101140.28
2023-09-16T14:18:45.895Z,101137.28
2023-09-16T14:21:15.384Z,101148.88
2023-09-16T14:23:43.631Z,101153.56
2023-09-16T14:26:11.801Z,101138.38
2023-09-16T14:28:39.876Z,101156.16
2023-09-16T14:31:08.945Z,101159.69
2023-09-16T14:33:37.494Z,101154.06
2023-09-16T14:36:06.735Z,101160.19
2023-09-16T14:38:36.241Z,101155.38
2023-09-16T14:41:07.418Z,101171.00
2023-09-16T14:43:37.051Z,101170.84
2023-09-16T14:46:05.224Z,101188.59
2023-09-16T14:48:33.753Z,101195.03
2023-09-16T14:51:01.803Z,101211.75
2023-09-16T14:53:29.802Z,101210.91
2023-09-16T14:55:59.386Z,101207.34
2023-09-16T14:58:27.585Z,101209.38
2023-09-16T15:00:55.760Z,101217.50
2023-09-16T15:03:24.011Z,101225.50
2023-09-16T15:05:53.610Z,101230.31
2023-09-16T15:08:21.844Z,101227.66
2023-09-16T15:10:50.661Z,101241.13
2023-09-16T15:13:20.313Z,101250.44
2023-09-16T15:15:48.502Z,101216.44
2023-09-16T15:18:17.118Z,101248.25
2023-09-16T15:20:45.270Z,101243.09
2023-09-16T15:23:13.426Z,101244.34
2023-09-16T15:25:41.519Z,101243.78
2023-09-16T15:28:09.650Z,101241.69
2023-09-16T15:30:39.096Z,101228.56
2023-09-16T15:33:07.309Z,101219.72
2023-09-16T15:35:35.591Z,101228.06
2023-09-16T15:38:04.355Z,101233.09
2023-09-16T15:40:32.700Z,101230.56
2023-09-16T15:43:00.807Z,101210.56
2023-09-16T15:45:30.788Z,101225.59
2023-09-16T15:48:00.398Z,101224.22
2023-09-16T15:50:29.281Z,101215.03
2023-09-16T15:52:57.502Z,101212.81
2023-09-16T15:55:26.164Z,101214.16
2023-09-16T15:57:59.140Z,101210.00
2023-09-16T16:00:27.308Z,101215.94
2023-09-16T16:02:55.513Z,101204.94
2023-09-16T16:05:25.113Z,101205.13
2023-09-16T16:07:53.128Z,101191.13
2023-09-16T16:10:22.852Z,101188.59
2023-09-16T16:12:50.968Z,101183.81
2023-09-16T16:15:19.202Z,101187.31
2023-09-16T16:17:48.281Z,101166.31
2023-09-16T16:20:16.426Z,101162.13
2023-09-16T16:22:45.846Z,101163.53
2023-09-16T16:25:13.945Z,101141.56
2023-09-16T16:27:42.067Z,101128.03
2023-09-16T16:30:12.279Z,101148.28
2023-09-16T16:32:40.435Z,101155.47
2023-09-16T16:35:09.116Z,101146.75
2023-09-16T16:37:37.210Z,101144.72
2023-09-16T16:40:07.528Z,101147.16
2023-09-16T16:42:36.212Z,101148.84
2023-09-16T16:45:04.757Z,101148.25
2023-09-16T16:47:33.011Z,101152.28
2023-09-16T16:50:05.119Z,101154.34
2023-09-16T16:52:33.260Z,101148.25
2023-09-16T16:55:01.377Z,101158.81
2023-09-16T16:57:31.061Z,101164.00
2023-09-16T16:59:59.112Z,101170.97
2023-09-16T17:02:27.245Z,101168.06
2023-09-16T17:04:55.971Z,101179.13
2023-09-16T17:07:24.288Z,101182.59
2023-09-16T17:09:53.747Z,101188.84
2023-09-16T17:12:21.789Z,101196.50
2023-09-16T17:14:51.285Z,101194.41
2023-09-16T17:17:21.339Z,101191.91
2023-09-16T17:19:50.788Z,101194.84
2023-09-16T17:22:19.382Z,101197.00
2023-09-16T17:24:47.526Z,101209.66
2023-09-16T17:27:15.549Z,101207.56
2023-09-16T17:29:43.578Z,101213.50
2023-09-16T17:32:13.063Z,101192.16
2023-09-16T17:34:41.142Z,101220.22
2023-09-16T17:37:09.595Z,101219.09
2023-09-16T17:39:38.956Z,101222.59
2023-09-16T17:42:07.468Z,101214.69
2023-09-16T17:44:35.500Z,101225.81
2023-09-16T17:47:05.016Z,101231.84
2023-09-16T17:49:34.491Z,101236.16
2023-09-16T17:52:02.621Z,101223.50
2023-09-16T17:54:30.691Z,101248.59
2023-09-16T17:56:59.139Z,101252.78
2023-09-16T17:59:27.187Z,101255.81
2023-09-16T18:01:55.514Z,101248.47
2023-09-16T18:04:24.506Z,101258.88
2023-09-16T18:06:54.184Z,101267.47
2023-09-16T18:09:22.239Z,101264.69
2023-09-16T18:11:50.508Z,101258.09
2023-09-16T18:14:18.953Z,101265.53
2023-09-16T18:16:47.095Z,101264.44
2023-09-16T18:19:15.214Z,101267.63
2023-09-16T18:21:43.393Z,101258.41
2023-09-16T18:24:13.059Z,101266.75
2023-09-16T18:26:41.079Z,101256.19
2023-09-16T18:29:09.183Z,101256.47
2023-09-16T18:31:37.286Z,101266.91
2023-09-16T18:34:05.774Z,101263.41
2023-09-16T18:36:33.830Z,101257.16
2023-09-16T18:39:02.473Z,101250.91
2023-09-16T18:41:32.134Z,101253.81
2023-09-16T18:44:05.061Z,101251.59
2023-09-16T18:46:33.692Z,101241.47
2023-09-16T18:49:02.140Z,101245.25
2023-09-16T18:51:31.086Z,101245.00
2023-09-16T18:53:59.126Z,101248.84
2023-09-16T18:56:27.198Z,101249.31
2023-09-16T18:58:56.616Z,101250.97
2023-09-16T19:01:26.384Z,101242.91
2023-09-16T19:03:54.763Z,101251.09
2023-09-16T19:06:22.823Z,101253.47
2023-09-16T19:08:51.441Z,101254.97
2023-09-16T19:11:21.122Z,101246.22
2023-09-16T19:13:49.325Z,101250.09
2023-09-16T19:16:19.121Z,101258.59
2023-09-16T19:18:47.276Z,101249.69
2023-09-16T19:21:15.478Z,101244.72
2023-09-16T19:23:46.671Z,101258.31
2023-09-16T19:26:14.770Z,101257.63
2023-09-16T19:28:42.839Z,101261.41
2023-09-16T19:31:10.945Z,101255.56
2023-09-16T19:33:40.620Z,101264.31
2023-09-16T19:36:08.793Z,101257.78
2023-09-16T19:38:41.667Z,101259.31
2023-09-16T19:41:10.063Z,101264.72
2023-09-16T19:43:38.214Z,101262.41
2023-09-16T19:46:08.240Z,101259.22
2023-09-16T19:48:36.888Z,101266.69
2023-09-16T19:51:06.711Z,101270.88
2023-09-16T19:53:35.111Z,101271.13
2023-09-16T19:56:05.225Z,101271.13
2023-09-16T19:58:33.523Z,101263.66
2023-09-16T20:01:02.769Z,101260.88
2023-09-16T20:03:31.348Z,101258.63
2023-09-16T20:05:59.954Z,101260.19
2023-09-16T20:08:29.397Z,101249.75
2023-09-16T20:10:57.491Z,101260.72
2023-09-16T20:13:25.637Z,101258.91
2023-09-16T20:15:53.724Z,101258.34
2023-09-16T20:18:21.821Z,101260.59
2023-09-16T20:20:50.052Z,101256.97
2023-09-16T20:23:18.508Z,101256.53
2023-09-16T20:25:49.459Z,101265.03
2023-09-16T20:28:17.637Z,101265.59
2023-09-16T20:30:45.829Z,101262.53
2023-09-16T20:33:13.871Z,101256.69
2023-09-16T20:35:41.923Z,101262.78
2023-09-16T20:38:10.259Z,101264.59
2023-09-16T20:40:38.328Z,101267.22
2023-09-16T20:43:07.834Z,101266.97
2023-09-16T20:45:37.021Z,101262.97
2023-09-16T20:48:06.229Z,101268.50
2023-09-16T20:50:36.241Z,101259.19
2023-09-16T20:53:05.655Z,101258.66
2023-09-16T20:55:33.858Z,101258.09
2023-09-16T20:58:01.979Z,101274.47
2023-09-16T21:00:31.467Z,101280.59
2023-09-16T21:02:59.569Z,101272.25
2023-09-16T21:05:28.086Z,101280.03
2023-09-16T21:07:56.167Z,101283.63
2023-09-16T21:10:24.306Z,101280.59
2023-09-16T21:12:52.393Z,101277.69
2023-09-16T21:15:20.513Z,101273.78
2023-09-16T21:17:50.106Z,101272.25
2023-09-16T21:20:18.177Z,101278.22
2023-09-16T21:22:46.198Z,101276.41
2023-09-16T21:25:14.887Z,101274.88
2023-09-16T21:27:42.953Z,101280.84
2023-09-16T21:30:12.096Z,101266.56
2023-09-16T21:32:40.389Z,101272.09
2023-09-16T21:35:10.664Z,101269.06
2023-09-16T21:37:39.559Z,101268.38
2023-09-16T21:40:08.556Z,101267.66
2023-09-16T21:42:36.771Z,101264.75
2023-09-16T21:45:05.409Z,101267.22
2023-09-16T21:47:33.582Z,101247.78
2023-09-16T21:50:01.782Z,101260.84
2023-09-16T21:52:31.659Z,101254.22
2023-09-16T21:54:59.696Z,101260.16
2023-09-16T21:57:28.578Z,101250.31
2023-09-16T21:59:56.722Z,101263.75
2023-09-16T22:02:24.839Z,101258.22
2023-09-16T22:04:53.018Z,101264.75
2023-09-16T22:07:21.097Z,101253.06
2023-09-16T22:09:50.533Z,101259.59
2023-09-16T22:12:18.688Z,101256.53
2023-09-16T22:14:47.177Z,101263.59
2023-09-16T22:17:15.217Z,101265.16
2023-09-16T22:19:43.269Z,101263.16
2023-09-16T22:22:11.334Z,101266.09
2023-09-16T22:24:39.387Z,101270.81
2023-09-16T22:27:08.944Z,101272.34
2023-09-16T22:29:36.969Z,101270.41
2023-09-16T22:32:05.408Z,101274.28
2023-09-16T22:34:35.098Z,101264.72
2023-09-16T22:37:03.360Z,101270.28
2023-09-16T22:39:38.016Z,101257.63
2023-09-16T22:42:13.441Z,101260.25
2023-09-16T22:44:46.134Z,101267.59
2023-09-16T22:47:22.862Z,101270.44
2023-09-16T22:49:52.651Z,101264.13
2023-09-16T22:52:21.107Z,101268.59
2023-09-16T22:54:49.453Z,101267.50
2023-09-16T22:57:18.931Z,101260.38
2023-09-16T22:59:47.111Z,101266.38
2023-09-16T23:02:15.269Z,101268.19
2023-09-16T23:04:43.422Z,101257.78
2023-09-16T23:07:11.524Z,101265.28
2023-09-16T23:09:39.582Z,101268.06
2023-09-16T23:12:07.977Z,101270.56
2023-09-16T23:14:37.436Z,101265.84
2023-09-16T23:17:06.118Z,101273.06
2023-09-16T23:19:34.410Z,101265.28
2023-09-16T23:22:02.816Z,101265.84
2023-09-16T23:24:30.893Z,101266.13
2023-09-16T23:26:59.125Z,101264.75
2023-09-16T23:29:27.180Z,101267.78
2023-09-16T23:31:56.650Z,101258.34
2023-09-16T23:34:24.829Z,101254.72
2023-09-16T23:36:52.881Z,101250.16
2023-09-16T23:39:20.920Z,101254.59
2023-09-16T23:41:48.941Z,101245.28
2023-09-16T23:44:17.268Z,101245.00
2023-09-16T23:46:45.368Z,101247.91
2023-09-16T23:49:14.865Z,101232.22
2023-09-16T23:51:43.484Z,101248.63
2023-09-16T23:54:11.998Z,101245.13
2023-09-16T23:56:40.614Z,101251.38
2023-09-16T23:59:08.613Z,101246.94
